Time;durP1;ratioP1;P1;durP2;ratioP2;P2;SDS_P1;SDS_P2;PMS_P1;PMS_P2;Temp;Humidity;BMP_temperature;BMP_pressure;BME280_temperature;BME280_humidity;BME280_pressure;Samples;Min_cycle;Max_cycle;Signal;HPM_P1;HPM_P2
2022/11/30 00:01:14;;;;;;;33.37;19.40;;;3.80;84.20;;;;;;5025365;28;20955;-62
2022/11/30 00:03:40;;;;;;;33.07;19.13;;;3.80;84.20;;;;;;5014530;28;20421;-62
2022/11/30 00:06:08;;;;;;;33.17;19.03;;;3.80;84.20;;;;;;5039673;28;20581;-62
2022/11/30 00:08:33;;;;;;;37.73;21.87;;;3.80;84.20;;;;;;5027352;28;20248;-62
2022/11/30 00:10:59;;;;;;;35.30;19.40;;;3.80;84.20;;;;;;5021673;28;20426;-61
2022/11/30 00:13:25;;;;;;;35.13;19.77;;;3.80;84.20;;;;;;5014637;28;20216;-62
2022/11/30 00:15:50;;;;;;;32.27;19.87;;;3.80;84.30;;;;;;5032894;28;20195;-62
2022/11/30 00:18:16;;;;;;;33.63;18.10;;;3.80;84.30;;;;;;4996595;28;20712;-61
2022/11/30 00:20:43;;;;;;;30.77;18.10;;;3.80;84.30;;;;;;4999429;28;20191;-61
2022/11/30 00:23:09;;;;;;;37.47;19.63;;;3.80;84.30;;;;;;5031895;28;20193;-61
2022/11/30 00:25:36;;;;;;;31.87;19.37;;;3.80;84.30;;;;;;5034830;28;20455;-62
2022/11/30 00:28:01;;;;;;;35.70;20.10;;;3.80;84.40;;;;;;5016171;28;20193;-62
2022/11/30 00:30:27;;;;;;;37.00;20.70;;;3.80;84.40;;;;;;4998242;28;20442;-61
2022/11/30 00:32:57;;;;;;;33.57;20.40;;;3.80;84.50;;;;;;5004918;28;20195;-61
2022/11/30 00:35:22;;;;;;;34.57;18.77;;;3.80;84.60;;;;;;5016291;28;20444;-61
2022/11/30 00:37:48;;;;;;;34.17;19.47;;;3.80;84.60;;;;;;5016323;28;20555;-62
2022/11/30 00:40:14;;;;;;;32.33;19.00;;;3.70;84.60;;;;;;5015762;28;20247;-62
2022/11/30 00:42:39;;;;;;;35.20;21.30;;;3.80;84.60;;;;;;4991066;28;20187;-61
2022/11/30 00:45:06;;;;;;;30.37;19.53;;;3.70;84.80;;;;;;4999235;28;20267;-61
2022/11/30 00:47:31;;;;;;;32.60;19.60;;;3.70;84.80;;;;;;4980027;28;20733;-61
2022/11/30 00:50:00;;;;;;;34.90;20.30;;;3.70;84.90;;;;;;4998988;28;20444;-61
2022/11/30 00:52:28;;;;;;;31.37;18.93;;;3.70;84.90;;;;;;5010024;28;20576;-61
2022/11/30 00:54:53;;;;;;;33.50;20.50;;;3.70;84.80;;;;;;5009621;28;20790;-61
2022/11/30 00:57:19;;;;;;;31.10;19.30;;;3.70;84.80;;;;;;4996880;28;20429;-61
2022/11/30 00:59:44;;;;;;;33.07;17.53;;;3.70;84.90;;;;;;4999174;28;20201;-62
2022/11/30 01:02:20;;;;;;;35.03;19.50;;;3.70;84.80;;;;;;4977000;28;20195;-62
2022/11/30 01:04:46;;;;;;;35.00;18.70;;;3.70;84.80;;;;;;5015810;28;20210;-62
2022/11/30 01:07:23;;;;;;;34.60;19.80;;;3.70;84.80;;;;;;4999722;28;20476;-61
2022/11/30 01:09:48;;;;;;;35.60;19.37;;;3.70;84.80;;;;;;5002934;28;20700;-61
2022/11/30 01:12:14;;;;;;;32.40;19.00;;;3.70;84.70;;;;;;5037532;28;20429;-62
2022/11/30 01:14:39;;;;;;;30.83;19.10;;;3.80;84.70;;;;;;4987370;28;20187;-62
2022/11/30 01:17:05;;;;;;;26.87;16.87;;;3.70;84.80;;;;;;5017875;28;20226;-62
2022/11/30 01:19:31;;;;;;;31.47;18.80;;;3.70;84.70;;;;;;5020077;28;20294;-62
2022/11/30 01:21:56;;;;;;;37.03;21.80;;;3.70;84.70;;;;;;5002446;28;20294;-62
2022/11/30 01:24:22;;;;;;;37.30;20.57;;;3.70;84.80;;;;;;5002944;28;20186;-62
2022/11/30 01:26:48;;;;;;;31.00;18.17;;;3.70;84.80;;;;;;4986716;28;20195;-62
2022/11/30 01:29:13;;;;;;;33.00;19.90;;;3.70;84.80;;;;;;5019783;28;20208;-62
2022/11/30 01:31:39;;;;;;;31.93;19.53;;;3.70;84.80;;;;;;5003275;28;20187;-62
2022/11/30 01:34:04;;;;;;;37.63;20.50;;;3.70;84.80;;;;;;4984735;28;20215;-62
2022/11/30 01:36:31;;;;;;;32.67;19.47;;;3.70;84.90;;;;;;4987285;28;20653;-61
2022/11/30 01:38:57;;;;;;;38.20;19.73;;;3.70;84.80;;;;;;5017329;28;20285;-61
2022/11/30 01:41:29;;;;;;;35.53;17.67;;;3.70;84.80;;;;;;5002420;28;20595;-61
2022/11/30 01:44:05;;;;;;;34.53;19.33;;;3.70;84.80;;;;;;5015799;28;20559;-61
2022/11/30 01:46:50;;;;;;;31.80;18.37;;;3.70;84.70;;;;;;5042132;28;20795;-62
2022/11/30 01:49:22;;;;;;;32.90;19.23;;;3.70;84.70;;;;;;5006985;28;20445;-62
2022/11/30 01:51:56;;;;;;;36.27;21.47;;;3.70;84.70;;;;;;5011391;28;20444;-62
2022/11/30 01:54:26;;;;;;;35.73;18.97;;;3.70;84.80;;;;;;5030060;28;20458;-61
2022/11/30 01:57:00;;;;;;;31.20;18.37;;;3.80;84.80;;;;;;5018429;28;20414;-62
2022/11/30 01:59:26;;;;;;;32.93;19.47;;;3.70;84.80;;;;;;5018357;28;20572;-62
2022/11/30 02:01:53;;;;;;;39.60;20.83;;;3.70;84.90;;;;;;5002241;28;20472;-62
2022/11/30 02:04:25;;;;;;;34.50;20.80;;;3.70;84.90;;;;;;4999815;28;20194;-62
2022/11/30 02:06:51;;;;;;;37.43;20.33;;;3.70;84.90;;;;;;5018640;28;20421;-62
2022/11/30 02:09:18;;;;;;;35.07;18.20;;;3.70;84.90;;;;;;5002913;28;20429;-62
2022/11/30 02:11:45;;;;;;;34.47;20.07;;;3.70;84.90;;;;;;5018916;28;20434;-62
2022/11/30 02:14:22;;;;;;;31.67;18.30;;;3.70;84.90;;;;;;5010991;28;20426;-62
2022/11/30 02:17:07;;;;;;;36.93;18.50;;;3.70;84.90;;;;;;5007839;28;20483;-61
2022/11/30 02:19:54;;;;;;;30.13;18.23;;;3.70;84.90;;;;;;5013394;28;20465;-61
2022/11/30 02:22:29;;;;;;;31.47;18.13;;;3.70;84.90;;;;;;5027607;28;20435;-61
2022/11/30 02:25:20;;;;;;;29.73;17.30;;;3.70;84.90;;;;;;5017523;28;20447;-62
2022/11/30 02:28:11;;;;;;;32.37;19.07;;;3.80;84.90;;;;;;5035254;28;20416;-61
2022/11/30 02:30:47;;;;;;;34.93;19.27;;;3.70;84.90;;;;;;4981831;28;20442;-61
2022/11/30 02:33:16;;;;;;;33.30;19.30;;;3.70;84.90;;;;;;5018491;28;20425;-62
2022/11/30 02:35:46;;;;;;;27.93;16.70;;;3.70;85.00;;;;;;5017575;28;20433;-62
2022/11/30 02:38:12;;;;;;;30.47;18.63;;;3.70;85.10;;;;;;5018817;28;20469;-62
2022/11/30 02:40:38;;;;;;;27.63;16.90;;;3.70;85.00;;;;;;5004559;28;20513;-61
2022/11/30 02:43:05;;;;;;;35.13;18.43;;;3.70;85.00;;;;;;5017625;28;20484;-61
2022/11/30 02:45:45;;;;;;;32.00;19.30;;;3.80;85.00;;;;;;5036070;28;20211;-61
2022/11/30 02:48:12;;;;;;;30.87;17.87;;;3.70;85.00;;;;;;5033159;28;20452;-61
2022/11/30 02:50:43;;;;;;;31.57;18.57;;;3.80;85.10;;;;;;5001788;28;20434;-61
2022/11/30 02:56:35;;;;;;;31.20;20.07;;;3.80;85.10;;;;;;4954701;28;20453;-62
2022/11/30 02:59:01;;;;;;;33.93;19.67;;;3.70;85.10;;;;;;4935382;29;20560;-62
2022/11/30 03:01:27;;;;;;;30.67;17.97;;;3.70;85.10;;;;;;5009129;28;20438;-62
2022/11/30 03:03:52;;;;;;;32.83;18.20;;;3.80;85.10;;;;;;5002089;28;20195;-62
2022/11/30 03:06:18;;;;;;;31.40;18.23;;;3.70;85.10;;;;;;4981960;28;20199;-61
2022/11/30 03:08:43;;;;;;;35.67;20.43;;;3.80;85.10;;;;;;5001330;28;20201;-61
2022/11/30 03:11:09;;;;;;;30.57;18.73;;;3.80;85.10;;;;;;4983207;28;20194;-61
2022/11/30 03:13:35;;;;;;;34.37;19.70;;;3.70;85.10;;;;;;5011498;28;20199;-61
2022/11/30 03:16:09;;;;;;;30.57;17.70;;;3.70;85.10;;;;;;4998269;28;20220;-62
2022/11/30 03:18:35;;;;;;;26.23;16.67;;;3.70;85.20;;;;;;4986783;28;20215;-62
2022/11/30 03:21:05;;;;;;;35.23;18.67;;;3.70;85.20;;;;;;5018071;28;20430;-61
2022/11/30 03:23:31;;;;;;;29.17;18.33;;;3.70;85.10;;;;;;5017695;28;20266;-61
2022/11/30 03:25:57;;;;;;;28.40;16.40;;;3.80;85.10;;;;;;5000978;28;20512;-61
2022/11/30 03:28:24;;;;;;;35.57;19.83;;;3.80;85.00;;;;;;5010379;28;20203;-61
2022/11/30 03:30:50;;;;;;;37.83;19.43;;;3.80;85.00;;;;;;5014957;28;20425;-62
2022/11/30 03:33:16;;;;;;;34.13;19.30;;;3.80;85.00;;;;;;5030595;28;20440;-62
2022/11/30 03:35:42;;;;;;;30.07;17.63;;;3.80;84.90;;;;;;5001636;28;20475;-62
2022/11/30 03:38:08;;;;;;;31.87;17.90;;;3.80;84.90;;;;;;5004162;28;20472;-61
2022/11/30 03:40:36;;;;;;;35.73;20.37;;;3.80;84.80;;;;;;4999995;28;20242;-62
2022/11/30 03:43:02;;;;;;;35.60;19.40;;;3.80;84.80;;;;;;5000910;28;20253;-62
2022/11/30 03:45:28;;;;;;;34.33;19.57;;;3.80;84.70;;;;;;5000587;28;20438;-62
2022/11/30 03:47:53;;;;;;;35.43;19.00;;;3.80;84.60;;;;;;4999272;28;20432;-61
2022/11/30 03:50:19;;;;;;;36.07;22.70;;;3.80;84.50;;;;;;5000543;28;20198;-62
2022/11/30 03:52:45;;;;;;;39.17;22.03;;;3.80;84.40;;;;;;4984450;28;20286;-62
2022/11/30 03:55:10;;;;;;;37.47;20.53;;;3.80;84.50;;;;;;4981019;28;20230;-62
2022/11/30 03:57:36;;;;;;;37.43;20.03;;;3.80;84.50;;;;;;4996872;28;20233;-62
2022/11/30 04:00:04;;;;;;;37.17;20.00;;;3.80;84.40;;;;;;4998941;28;20194;-61
2022/11/30 04:02:30;;;;;;;37.10;20.50;;;3.80;84.40;;;;;;4999596;28;20234;-62
2022/11/30 04:04:55;;;;;;;33.87;19.80;;;3.80;84.30;;;;;;5000063;28;20470;-62
2022/11/30 04:07:21;;;;;;;37.57;21.53;;;3.80;84.30;;;;;;5011744;28;20276;-62
2022/11/30 04:09:47;;;;;;;34.70;17.57;;;3.80;84.30;;;;;;5014626;28;20212;-62
2022/11/30 04:12:12;;;;;;;36.33;19.53;;;3.80;84.30;;;;;;4979128;28;20286;-62
2022/11/30 04:14:38;;;;;;;33.30;18.93;;;3.80;84.30;;;;;;5031785;28;20225;-62
2022/11/30 04:17:04;;;;;;;33.70;19.30;;;3.80;84.30;;;;;;4998615;28;20190;-62
2022/11/30 04:19:29;;;;;;;29.77;17.37;;;3.80;84.40;;;;;;5001733;28;20219;-62
2022/11/30 04:21:55;;;;;;;30.93;18.23;;;3.80;84.40;;;;;;5019408;28;20228;-61
2022/11/30 04:24:21;;;;;;;33.23;20.13;;;3.80;84.50;;;;;;5005088;28;20256;-62
2022/11/30 04:26:46;;;;;;;33.87;18.47;;;3.80;84.50;;;;;;4999444;28;20296;-62
2022/11/30 04:29:12;;;;;;;35.97;19.17;;;3.80;84.60;;;;;;4982557;28;20202;-62
2022/11/30 04:31:37;;;;;;;36.47;20.60;;;3.80;84.70;;;;;;4993153;28;20302;-62
2022/11/30 04:34:03;;;;;;;31.67;18.53;;;3.80;84.80;;;;;;4985418;28;20189;-62
2022/11/30 04:36:29;;;;;;;33.17;17.03;;;3.80;84.80;;;;;;4997857;28;20279;-62
2022/11/30 04:38:54;;;;;;;33.40;19.93;;;3.80;84.80;;;;;;5048413;28;20218;-62
2022/11/30 04:41:20;;;;;;;33.37;19.67;;;3.80;84.90;;;;;;5010624;28;20239;-62
2022/11/30 04:43:46;;;;;;;34.97;19.40;;;3.80;85.00;;;;;;5010204;28;20217;-62
2022/11/30 04:46:11;;;;;;;32.47;19.20;;;3.80;85.00;;;;;;5022220;28;20245;-59
2022/11/30 04:48:37;;;;;;;38.77;22.27;;;3.80;85.10;;;;;;4989456;28;20234;-61
2022/11/30 04:51:05;;;;;;;37.13;21.10;;;3.80;85.10;;;;;;5001987;28;20225;-62
2022/11/30 04:53:31;;;;;;;31.03;18.73;;;3.80;85.20;;;;;;5039714;28;20218;-62
2022/11/30 04:55:57;;;;;;;36.80;18.93;;;3.80;85.30;;;;;;4996876;28;20446;-62
2022/11/30 04:58:23;;;;;;;34.93;18.40;;;3.70;85.30;;;;;;5039095;28;20535;-62
2022/11/30 05:00:49;;;;;;;29.67;17.43;;;3.70;85.30;;;;;;5006048;28;20205;-63
2022/11/30 05:03:14;;;;;;;33.37;18.07;;;3.80;85.40;;;;;;5022829;28;20191;-63
2022/11/30 05:05:40;;;;;;;29.40;16.87;;;3.80;85.40;;;;;;4990059;28;20248;-62
2022/11/30 05:08:06;;;;;;;30.37;17.97;;;3.70;85.40;;;;;;5009304;28;20199;-63
2022/11/30 05:10:32;;;;;;;33.00;18.27;;;3.80;85.40;;;;;;5012301;28;20206;-64
2022/11/30 05:12:58;;;;;;;27.13;16.00;;;3.80;85.50;;;;;;4989811;28;20222;-63
2022/11/30 05:15:24;;;;;;;33.03;17.57;;;3.80;85.70;;;;;;4990429;28;20434;-63
2022/11/30 05:17:50;;;;;;;28.90;18.40;;;3.80;85.70;;;;;;5002814;28;20470;-63
2022/11/30 05:20:16;;;;;;;30.87;17.60;;;3.80;85.70;;;;;;5012269;28;20568;-63
2022/11/30 05:22:42;;;;;;;30.57;16.77;;;3.90;85.60;;;;;;5004151;28;20246;-63
2022/11/30 05:25:08;;;;;;;30.10;14.87;;;3.80;85.60;;;;;;4999906;28;20201;-63
2022/11/30 05:27:34;;;;;;;31.47;18.30;;;3.90;85.50;;;;;;5005309;28;20201;-63
2022/11/30 05:30:18;;;;;;;30.10;17.27;;;3.90;85.50;;;;;;5006354;28;20437;-63
2022/11/30 05:32:45;;;;;;;30.10;17.40;;;3.90;85.40;;;;;;5030826;28;20442;-63
2022/11/30 05:35:11;;;;;;;29.40;17.13;;;3.90;85.10;;;;;;5021360;28;20966;-63
2022/11/30 05:37:37;;;;;;;31.30;17.73;;;3.90;85.20;;;;;;4985948;28;20282;-64
2022/11/30 05:40:03;;;;;;;31.40;17.43;;;4.00;85.10;;;;;;5018777;28;20288;-64
2022/11/30 05:42:29;;;;;;;32.60;17.53;;;4.00;85.10;;;;;;5019142;28;20198;-64
2022/11/30 05:44:54;;;;;;;24.47;14.93;;;4.00;85.10;;;;;;5031962;28;20520;-64
2022/11/30 05:47:20;;;;;;;28.17;16.93;;;4.00;85.10;;;;;;5018067;28;20645;-63
2022/11/30 05:49:46;;;;;;;26.13;15.17;;;4.00;85.00;;;;;;5045446;28;20186;-63
2022/11/30 05:52:11;;;;;;;27.37;16.90;;;4.00;85.10;;;;;;5002460;28;20190;-63
2022/11/30 05:54:37;;;;;;;26.30;15.70;;;4.00;85.10;;;;;;4994910;28;20214;-63
2022/11/30 05:57:04;;;;;;;31.10;16.73;;;4.10;85.20;;;;;;5001813;28;20251;-63
2022/11/30 05:59:29;;;;;;;27.40;16.47;;;4.00;85.10;;;;;;5034844;28;20199;-63
2022/11/30 06:01:55;;;;;;;26.67;15.20;;;4.00;85.30;;;;;;5008600;28;20441;-63
2022/11/30 06:04:21;;;;;;;24.07;15.10;;;4.00;85.50;;;;;;5000680;28;20191;-63
2022/11/30 06:06:48;;;;;;;27.07;16.13;;;4.00;85.50;;;;;;5009630;28;20633;-63
2022/11/30 06:09:14;;;;;;;26.87;16.10;;;4.00;85.40;;;;;;5002318;28;20672;-63
2022/11/30 06:11:39;;;;;;;23.63;15.77;;;3.90;85.60;;;;;;5017928;28;20433;-63
2022/11/30 06:14:05;;;;;;;23.53;13.77;;;4.00;85.70;;;;;;5001930;28;20206;-63
2022/11/30 06:16:31;;;;;;;25.37;15.47;;;3.90;85.70;;;;;;4983641;28;20214;-63
2022/11/30 06:18:56;;;;;;;28.77;15.53;;;3.90;85.80;;;;;;4999315;28;20214;-63
2022/11/30 06:21:22;;;;;;;26.47;15.40;;;3.90;85.80;;;;;;5005608;28;20182;-63
2022/11/30 06:23:47;;;;;;;25.87;15.50;;;3.90;85.80;;;;;;4977145;28;20229;-63
2022/11/30 06:26:13;;;;;;;24.30;14.17;;;3.90;85.90;;;;;;4985909;28;20277;-63
2022/11/30 06:28:39;;;;;;;27.53;15.97;;;3.90;86.00;;;;;;5004032;28;20191;-63
2022/11/30 06:31:06;;;;;;;25.47;15.43;;;3.90;86.00;;;;;;5011649;28;20201;-63
2022/11/30 06:33:33;;;;;;;21.07;13.77;;;3.90;86.10;;;;;;5018085;28;20421;-64
2022/11/30 06:35:58;;;;;;;30.53;16.90;;;3.90;86.10;;;;;;4985287;28;20453;-63
2022/11/30 06:38:25;;;;;;;26.17;14.57;;;3.90;86.00;;;;;;4990803;28;20471;-63
2022/11/30 06:40:51;;;;;;;29.23;15.70;;;4.00;86.10;;;;;;4998524;28;20388;-63
2022/11/30 06:43:17;;;;;;;29.33;16.07;;;4.00;86.10;;;;;;5002337;28;20480;-63
2022/11/30 06:45:44;;;;;;;27.03;15.80;;;4.00;86.10;;;;;;4998688;28;20437;-63
2022/11/30 06:48:11;;;;;;;25.00;15.23;;;4.00;86.20;;;;;;5016969;28;20284;-63
2022/11/30 06:50:37;;;;;;;23.67;14.37;;;4.00;86.10;;;;;;4985989;28;20454;-63
2022/11/30 06:53:03;;;;;;;25.20;14.97;;;4.00;86.30;;;;;;5026957;28;20418;-63
2022/11/30 06:55:31;;;;;;;21.97;13.33;;;4.00;86.40;;;;;;5022956;28;20203;-63
2022/11/30 06:58:07;;;;;;;22.83;14.03;;;4.00;86.40;;;;;;5010125;28;20226;-63
2022/11/30 07:00:34;;;;;;;20.73;12.53;;;4.00;86.50;;;;;;5008359;28;20497;-63
2022/11/30 07:03:01;;;;;;;20.83;12.73;;;3.90;86.50;;;;;;5014453;28;20454;-64
2022/11/30 07:05:27;;;;;;;20.90;14.47;;;3.90;86.80;;;;;;5004047;28;20441;-64
2022/11/30 07:07:53;;;;;;;24.87;14.93;;;3.90;86.80;;;;;;4999189;28;20436;-63
2022/11/30 07:10:18;;;;;;;23.00;14.67;;;3.90;86.90;;;;;;4988237;28;20196;-64
2022/11/30 07:12:44;;;;;;;25.87;15.13;;;3.80;87.10;;;;;;5013474;28;20187;-64
2022/11/30 07:15:10;;;;;;;21.73;14.63;;;3.80;87.20;;;;;;4999155;28;20190;-64
2022/11/30 07:17:35;;;;;;;22.97;14.70;;;3.80;87.40;;;;;;4993913;28;20279;-64
2022/11/30 07:20:01;;;;;;;24.27;14.77;;;3.80;87.60;;;;;;5006388;28;20184;-64
2022/11/30 07:22:27;;;;;;;23.17;14.67;;;3.90;87.60;;;;;;4997888;28;20187;-64
2022/11/30 07:27:37;;;;;;;20.07;13.23;;;3.90;87.90;;;;;;4996920;28;20226;-64
2022/11/30 07:30:03;;;;;;;19.73;12.47;;;3.90;88.00;;;;;;5014997;28;20442;-64
2022/11/30 07:32:28;;;;;;;23.43;13.73;;;3.90;88.10;;;;;;4995339;28;20673;-64
2022/11/30 07:34:54;;;;;;;23.47;14.33;;;3.90;88.30;;;;;;4993628;28;20448;-64
2022/11/30 07:37:20;;;;;;;20.67;13.43;;;3.80;87.90;;;;;;4982603;28;20598;-65
2022/11/30 07:39:45;;;;;;;20.60;12.53;;;3.90;88.40;;;;;;5017315;28;20246;-64
2022/11/30 07:42:11;;;;;;;20.93;14.57;;;3.80;88.60;;;;;;4997750;28;20187;-65
2022/11/30 07:44:37;;;;;;;24.53;13.87;;;3.80;88.90;;;;;;4995607;28;20187;-65
2022/11/30 07:47:02;;;;;;;23.43;15.07;;;3.80;89.20;;;;;;4983516;28;20188;-65
2022/11/30 07:49:28;;;;;;;24.23;15.00;;;3.80;89.40;;;;;;5010491;28;20191;-65
2022/11/30 07:51:53;;;;;;;25.57;16.40;;;3.80;89.60;;;;;;4981945;28;20249;-65
2022/11/30 07:54:19;;;;;;;22.97;14.33;;;3.80;89.90;;;;;;5014586;28;20218;-65
2022/11/30 07:56:45;;;;;;;26.27;15.80;;;3.80;90.20;;;;;;4981715;28;20195;-65
2022/11/30 07:59:10;;;;;;;23.07;15.07;;;3.80;90.20;;;;;;5016264;28;20215;-65
2022/11/30 08:01:36;;;;;;;24.77;15.30;;;3.80;90.50;;;;;;4981998;28;20189;-65
2022/11/30 08:04:02;;;;;;;24.27;14.93;;;3.80;90.60;;;;;;5014228;28;20654;-65
2022/11/30 08:06:30;;;;;;;25.67;16.27;;;3.80;90.80;;;;;;5023723;28;20186;-65
2022/11/30 08:08:58;;;;;;;27.63;15.67;;;3.80;91.00;;;;;;5004531;28;20451;-65
2022/11/30 08:11:29;;;;;;;32.67;16.90;;;3.80;91.10;;;;;;5032623;28;20425;-65
2022/11/30 08:13:55;;;;;;;26.80;15.77;;;3.80;91.30;;;;;;5015022;28;20451;-65
2022/11/30 08:16:24;;;;;;;27.70;16.20;;;3.80;91.50;;;;;;4999050;28;20524;-65
2022/11/30 08:18:50;;;;;;;24.90;14.97;;;3.80;91.60;;;;;;5012832;28;20497;-65
2022/11/30 08:21:18;;;;;;;23.07;14.13;;;3.80;91.70;;;;;;4997736;28;20451;-65
2022/11/30 08:23:50;;;;;;;25.57;13.90;;;3.80;91.60;;;;;;5030765;28;20516;-65
2022/11/30 08:26:31;;;;;;;25.10;14.60;;;3.80;91.60;;;;;;5014118;28;20444;-65
2022/11/30 08:28:57;;;;;;;23.57;14.67;;;3.80;91.70;;;;;;5013576;28;20417;-65
2022/11/30 08:31:34;;;;;;;27.57;15.60;;;3.80;91.80;;;;;;5013605;28;20476;-65
2022/11/30 08:34:02;;;;;;;29.90;19.63;;;3.80;91.90;;;;;;4997051;28;20444;-65
2022/11/30 08:36:29;;;;;;;30.47;16.90;;;3.80;91.90;;;;;;5013985;28;21031;-65
2022/11/30 08:38:57;;;;;;;55.93;33.97;;;3.80;92.00;;;;;;5014731;28;20497;-65
2022/11/30 08:41:23;;;;;;;43.43;27.13;;;3.80;92.20;;;;;;4997488;28;21003;-65
2022/11/30 08:43:49;;;;;;;34.67;21.23;;;3.80;92.20;;;;;;4998144;28;20436;-65
2022/11/30 08:46:17;;;;;;;31.93;18.40;;;3.90;92.30;;;;;;4996733;28;20217;-65
2022/11/30 08:48:43;;;;;;;27.73;18.37;;;3.80;92.30;;;;;;5013334;28;20442;-65
2022/11/30 08:51:12;;;;;;;33.03;17.47;;;3.80;92.40;;;;;;4980877;28;20426;-65
2022/11/30 08:53:38;;;;;;;32.43;18.50;;;3.90;92.40;;;;;;5018559;28;20217;-65
2022/11/30 08:56:11;;;;;;;37.77;18.00;;;3.90;92.40;;;;;;4995068;28;20427;-65
2022/11/30 08:58:37;;;;;;;33.17;18.27;;;3.90;92.40;;;;;;5013457;28;20219;-65
2022/11/30 09:01:18;;;;;;;34.23;18.93;;;3.90;92.40;;;;;;5031527;28;20439;-65
2022/11/30 09:03:45;;;;;;;30.43;17.03;;;3.90;92.40;;;;;;5028926;28;20433;-65
2022/11/30 09:06:23;;;;;;;32.17;18.27;;;3.90;92.50;;;;;;5013995;28;20482;-65
2022/11/30 09:08:51;;;;;;;27.97;17.20;;;3.90;92.60;;;;;;5014004;28;20520;-65
2022/11/30 09:11:28;;;;;;;30.97;18.27;;;3.90;92.60;;;;;;4996461;28;20445;-65
2022/11/30 09:13:56;;;;;;;31.17;17.47;;;3.90;92.60;;;;;;5007993;28;20442;-65
2022/11/30 09:16:23;;;;;;;30.17;16.87;;;3.90;92.70;;;;;;5006579;28;20480;-65
2022/11/30 09:18:49;;;;;;;33.07;18.07;;;4.00;92.80;;;;;;5012316;28;20515;-65
2022/11/30 09:21:18;;;;;;;33.77;18.40;;;4.00;92.90;;;;;;4994431;28;20937;-65
2022/11/30 09:23:44;;;;;;;33.87;18.10;;;4.00;93.00;;;;;;5012540;28;20433;-65
2022/11/30 09:26:12;;;;;;;37.03;18.20;;;4.10;93.00;;;;;;5008582;28;20442;-65
2022/11/30 09:28:38;;;;;;;34.73;20.40;;;4.10;93.20;;;;;;5013427;28;20485;-66
2022/11/30 09:31:24;;;;;;;38.00;19.13;;;4.10;93.20;;;;;;5000339;28;20943;-66
2022/11/30 09:33:51;;;;;;;36.43;18.87;;;4.10;93.20;;;;;;5008569;28;20276;-66
2022/11/30 09:36:19;;;;;;;34.90;18.27;;;4.10;93.20;;;;;;5017041;28;20444;-66
2022/11/30 09:38:45;;;;;;;33.70;18.70;;;4.20;93.30;;;;;;5016598;28;20465;-65
2022/11/30 09:41:33;;;;;;;36.40;19.50;;;4.20;93.30;;;;;;4998029;28;20466;-66
2022/11/30 09:44:23;;;;;;;34.47;19.63;;;4.20;93.30;;;;;;5008632;28;20421;-66
2022/11/30 09:47:06;;;;;;;37.27;19.63;;;4.20;93.30;;;;;;5003164;28;20436;-65
2022/11/30 09:49:41;;;;;;;30.73;16.97;;;4.20;93.30;;;;;;5015268;28;20461;-65
2022/11/30 09:52:38;;;;;;;33.13;19.80;;;4.30;93.40;;;;;;5034374;28;20441;-65
2022/11/30 09:55:09;;;;;;;31.37;17.27;;;4.20;93.30;;;;;;5006911;28;20432;-65
2022/11/30 09:58:01;;;;;;;34.13;19.00;;;4.20;93.30;;;;;;5016375;28;20434;-66
2022/11/30 10:00:27;;;;;;;31.83;18.03;;;4.20;93.40;;;;;;5034486;28;20503;-66
2022/11/30 10:02:56;;;;;;;32.60;17.40;;;4.20;93.40;;;;;;4985402;28;20492;-66
2022/11/30 10:05:46;;;;;;;34.47;19.13;;;4.10;93.10;;;;;;5017751;28;20278;-66
2022/11/30 10:08:15;;;;;;;32.90;18.80;;;4.10;93.00;;;;;;5017806;28;20431;-65
2022/11/30 10:11:06;;;;;;;32.23;17.57;;;4.10;93.10;;;;;;5016669;28;20469;-65
2022/11/30 10:13:57;;;;;;;35.80;18.60;;;4.20;93.30;;;;;;5016917;28;20428;-66
2022/11/30 10:16:51;;;;;;;33.13;19.07;;;4.30;93.40;;;;;;5007166;28;20476;-66
2022/11/30 10:19:54;;;;;;;34.13;18.10;;;4.30;93.50;;;;;;5015149;28;20461;-66
2022/11/30 10:22:54;;;;;;;34.77;18.30;;;4.30;93.50;;;;;;5014711;28;20955;-66
2022/11/30 10:25:36;;;;;;;31.67;19.33;;;4.30;93.60;;;;;;5035153;28;20418;-66
2022/11/30 10:28:21;;;;;;;36.37;19.03;;;4.30;93.40;;;;;;5026184;28;20442;-66
2022/11/30 10:30:48;;;;;;;37.17;20.27;;;4.30;93.40;;;;;;5015879;28;20457;-66
2022/11/30 10:33:17;;;;;;;33.47;19.07;;;4.30;93.50;;;;;;5015416;28;20449;-66
2022/11/30 10:36:04;;;;;;;34.87;19.03;;;4.30;93.50;;;;;;5015235;28;20418;-66
2022/11/30 10:38:35;;;;;;;31.57;18.57;;;4.30;93.50;;;;;;5015748;28;20461;-66
2022/11/30 10:41:03;;;;;;;32.33;17.07;;;4.40;93.60;;;;;;5010052;28;20592;-66
2022/11/30 10:43:37;;;;;;;37.60;19.30;;;4.30;93.60;;;;;;5015682;28;20436;-66
2022/11/30 10:46:03;;;;;;;31.90;18.23;;;4.40;93.50;;;;;;5014583;28;20472;-66
2022/11/30 10:48:55;;;;;;;34.73;19.73;;;4.40;93.60;;;;;;5014890;28;20540;-66
2022/11/30 10:51:21;;;;;;;33.20;18.47;;;4.40;93.50;;;;;;5014426;28;20410;-66
2022/11/30 10:53:47;;;;;;;33.63;17.87;;;4.40;93.50;;;;;;5032571;28;20445;-66
2022/11/30 10:56:13;;;;;;;33.97;16.60;;;4.30;93.40;;;;;;5013100;28;20434;-66
2022/11/30 10:58:49;;;;;;;32.70;18.07;;;4.30;93.50;;;;;;4995409;28;20418;-66
2022/11/30 11:01:33;;;;;;;29.93;16.30;;;4.30;93.20;;;;;;5008728;28;20460;-66
2022/11/30 11:04:07;;;;;;;31.07;16.33;;;4.30;93.30;;;;;;5029831;28;20426;-66
2022/11/30 11:06:33;;;;;;;28.90;16.60;;;4.30;93.50;;;;;;5025439;28;20429;-66
2022/11/30 11:09:38;;;;;;;26.33;16.50;;;4.30;93.50;;;;;;5033533;28;20438;-65
2022/11/30 11:12:05;;;;;;;28.43;15.80;;;4.30;93.50;;;;;;5009807;28;20428;-65
2022/11/30 11:14:32;;;;;;;32.33;17.97;;;4.40;93.60;;;;;;5033902;28;20467;-65
2022/11/30 11:17:04;;;;;;;27.37;16.17;;;4.40;93.60;;;;;;5015522;28;20445;-68
2022/11/30 11:19:32;;;;;;;28.17;16.33;;;4.40;93.70;;;;;;5013781;28;20496;-69
2022/11/30 11:22:01;;;;;;;26.10;15.13;;;4.40;93.70;;;;;;5006538;28;20446;-64
2022/11/30 11:24:27;;;;;;;25.63;14.87;;;4.40;93.70;;;;;;5013459;28;20432;-67
2022/11/30 11:26:55;;;;;;;26.53;16.90;;;4.50;93.80;;;;;;4988727;28;20418;-65
2022/11/30 11:29:30;;;;;;;26.93;15.17;;;4.40;93.70;;;;;;5015555;28;20457;-63
2022/11/30 11:32:16;;;;;;;26.07;15.57;;;4.40;93.70;;;;;;5013456;28;20516;-63
2022/11/30 11:34:43;;;;;;;30.43;15.67;;;4.40;93.80;;;;;;5015390;28;20422;-63
2022/11/30 11:37:18;;;;;;;22.90;15.50;;;4.40;93.80;;;;;;5015242;28;20434;-63
2022/11/30 11:40:01;;;;;;;23.47;14.03;;;4.50;93.90;;;;;;5018217;28;20544;-63
2022/11/30 11:42:30;;;;;;;22.40;13.27;;;4.50;93.90;;;;;;5031065;28;20449;-63
2022/11/30 11:44:58;;;;;;;25.00;14.93;;;4.40;93.80;;;;;;5031881;28;20416;-63
2022/11/30 11:47:39;;;;;;;25.17;15.10;;;4.40;93.90;;;;;;5014879;28;21047;-63
2022/11/30 11:50:11;;;;;;;26.13;16.43;;;4.40;94.00;;;;;;5031689;28;20428;-64
2022/11/30 11:52:36;;;;;;;27.00;15.67;;;4.40;94.10;;;;;;5014275;28;20998;-65
2022/11/30 11:55:08;;;;;;;30.43;15.67;;;4.40;94.10;;;;;;4997113;28;20438;-65
2022/11/30 11:57:56;;;;;;;28.03;15.10;;;4.50;94.20;;;;;;5031498;28;20198;-64
2022/11/30 12:00:24;;;;;;;25.23;15.50;;;4.60;94.20;;;;;;5031704;28;20441;-64
2022/11/30 12:03:17;;;;;;;29.77;16.03;;;4.50;94.20;;;;;;5014456;28;20494;-64
2022/11/30 12:05:50;;;;;;;26.87;15.13;;;4.50;94.20;;;;;;5012744;28;20465;-64
2022/11/30 12:08:26;;;;;;;23.73;14.27;;;4.50;94.30;;;;;;5031941;28;20460;-64
2022/11/30 12:11:08;;;;;;;26.33;14.37;;;4.50;94.20;;;;;;5026978;28;20437;-64
2022/11/30 12:13:40;;;;;;;26.60;14.43;;;4.50;94.20;;;;;;5014044;28;20429;-62
2022/11/30 12:16:09;;;;;;;25.30;15.77;;;4.60;94.30;;;;;;5013609;28;20438;-64
2022/11/30 12:18:53;;;;;;;26.37;14.40;;;4.60;94.30;;;;;;5014464;28;20815;-64
2022/11/30 12:21:45;;;;;;;24.37;13.57;;;4.50;94.20;;;;;;5001950;28;20482;-64
2022/11/30 12:24:29;;;;;;;23.53;13.80;;;4.40;94.20;;;;;;5027856;28;20437;-65
2022/11/30 12:27:38;;;;;;;24.90;13.73;;;4.40;94.20;;;;;;5007898;28;20806;-65
2022/11/30 12:30:07;;;;;;;22.13;14.13;;;4.40;94.20;;;;;;5031496;28;20430;-65
2022/11/30 12:32:54;;;;;;;26.83;15.43;;;4.40;94.30;;;;;;4990015;28;20491;-64
2022/11/30 12:36:07;;;;;;;28.17;15.90;;;4.40;94.30;;;;;;4974956;28;20494;-64
2022/11/30 12:39:08;;;;;;;26.33;13.30;;;4.40;94.20;;;;;;4953675;28;20471;-64
2022/11/30 12:42:16;;;;;;;27.90;13.63;;;4.40;94.20;;;;;;4977004;28;20483;-64
2022/11/30 12:46:10;;;;;;;22.40;12.67;;;4.40;94.30;;;;;;4938014;28;20545;-64
2022/11/30 12:48:58;;;;;;;24.23;13.47;;;4.50;94.40;;;;;;4972139;28;20451;-64
2022/11/30 12:51:51;;;;;;;28.93;15.33;;;4.40;94.40;;;;;;4952852;28;20848;-64
2022/11/30 12:55:17;;;;;;;27.40;14.53;;;4.40;94.40;;;;;;4969815;28;20428;-64
2022/11/30 12:57:48;;;;;;;25.63;14.27;;;4.40;94.40;;;;;;5015751;28;20464;-63
2022/11/30 13:00:22;;;;;;;29.83;14.37;;;4.50;94.50;;;;;;5009882;28;20502;-64